createdAt,value
2022-08-14T00:01:23.849Z,21.76
2022-08-14T00:04:51.876Z,21.69
2022-08-14T00:08:45.207Z,21.62
2022-08-14T00:12:23.612Z,21.57
2022-08-14T00:15:53.610Z,21.52
2022-08-14T00:19:23.384Z,21.49
2022-08-14T00:22:57.673Z,21.46
2022-08-14T00:26:26.131Z,21.42
2022-08-14T00:29:54.374Z,21.41
2022-08-14T00:33:22.579Z,21.39
2022-08-14T00:37:10.233Z,21.39
2022-08-14T00:40:39.027Z,21.40
2022-08-14T00:44:06.595Z,21.42
2022-08-14T00:47:43.053Z,21.42
2022-08-14T00:51:13.290Z,21.40
2022-08-14T00:54:41.753Z,21.38
2022-08-14T00:58:32.513Z,21.36
2022-08-14T01:02:03.347Z,21.31
2022-08-14T01:05:41.776Z,21.26
2022-08-14T01:09:18.855Z,21.19
2022-08-14T01:12:49.119Z,21.13
2022-08-14T01:16:19.417Z,21.08
2022-08-14T01:20:27.816Z,20.99
2022-08-14T01:23:57.263Z,20.93
2022-08-14T01:27:27.678Z,20.89
2022-08-14T01:30:56.230Z,20.86
2022-08-14T01:35:17.357Z,20.85
2022-08-14T01:38:15.516Z,20.82
2022-08-14T01:41:48.726Z,20.83
2022-08-14T01:45:25.192Z,20.82
2022-08-14T01:48:54.377Z,20.79
2022-08-14T01:52:33.978Z,20.78
2022-08-14T01:56:18.413Z,20.76
2022-08-14T01:59:46.481Z,20.71
2022-08-14T02:03:16.742Z,20.66
2022-08-14T02:06:44.196Z,20.60
2022-08-14T02:10:16.153Z,20.55
2022-08-14T02:13:45.272Z,20.49
2022-08-14T02:17:14.665Z,20.45
2022-08-14T02:20:42.184Z,20.39
2022-08-14T02:24:39.523Z,20.34
2022-08-14T02:28:23.038Z,20.29
2022-08-14T02:31:49.659Z,20.21
2022-08-14T02:35:21.945Z,20.16
2022-08-14T02:38:54.793Z,20.13
2022-08-14T02:42:37.072Z,20.10
2022-08-14T02:46:05.626Z,20.12
2022-08-14T02:49:34.325Z,20.15
2022-08-14T02:53:03.384Z,20.17
2022-08-14T02:57:16.476Z,20.15
2022-08-14T03:00:19.666Z,20.10
2022-08-14T03:03:50.055Z,20.05
2022-08-14T03:07:18.919Z,20.00
2022-08-14T03:10:49.025Z,19.95
2022-08-14T03:14:17.929Z,19.91
2022-08-14T03:17:58.368Z,19.87
2022-08-14T03:21:27.893Z,19.82
2022-08-14T03:24:55.174Z,19.77
2022-08-14T03:28:29.574Z,19.75
2022-08-14T03:32:01.238Z,19.73
2022-08-14T03:35:37.459Z,19.69
2022-08-14T03:39:21.747Z,19.68
2022-08-14T03:42:51.024Z,19.68
2022-08-14T03:46:52.984Z,19.69
2022-08-14T03:50:11.848Z,19.73
2022-08-14T03:53:39.992Z,19.75
2022-08-14T03:57:09.712Z,19.73
2022-08-14T04:00:43.318Z,19.72
2022-08-14T04:04:13.796Z,19.72
2022-08-14T04:07:49.687Z,19.71
2022-08-14T04:11:27.873Z,19.67
2022-08-14T04:14:55.158Z,19.65
2022-08-14T04:18:22.239Z,19.63
2022-08-14T04:22:02.133Z,19.63
2022-08-14T04:25:34.129Z,19.65
2022-08-14T04:29:15.071Z,19.68
2022-08-14T04:32:58.579Z,19.74
2022-08-14T04:36:29.367Z,19.81
2022-08-14T04:40:15.212Z,19.88
2022-08-14T04:43:43.316Z,19.96
2022-08-14T04:47:30.962Z,20.03
2022-08-14T04:50:58.998Z,20.08
2022-08-14T04:54:27.143Z,20.10
2022-08-14T04:57:54.259Z,20.14
2022-08-14T05:01:22.121Z,20.17
2022-08-14T05:04:57.207Z,20.20
2022-08-14T05:08:32.264Z,20.22
2022-08-14T05:13:10.949Z,20.26
2022-08-14T05:16:03.153Z,20.30
2022-08-14T05:19:44.167Z,20.36
2022-08-14T05:23:13.993Z,20.42
2022-08-14T05:26:42.773Z,20.46
2022-08-14T05:30:15.408Z,20.54
2022-08-14T05:33:43.973Z,20.61
2022-08-14T05:37:22.941Z,20.70
2022-08-14T05:40:52.076Z,20.80
2022-08-14T05:44:20.517Z,20.90
2022-08-14T05:47:50.832Z,20.98
2022-08-14T05:51:19.276Z,21.06
2022-08-14T05:54:46.211Z,21.14
2022-08-14T05:58:14.645Z,21.22
2022-08-14T06:01:45.581Z,21.28
2022-08-14T06:05:14.122Z,21.34
2022-08-14T06:08:42.522Z,21.41
2022-08-14T06:12:12.114Z,21.47
2022-08-14T06:15:39.994Z,21.53
2022-08-14T06:19:07.378Z,21.56
2022-08-14T06:22:44.077Z,21.61
2022-08-14T06:26:14.003Z,21.63
2022-08-14T06:29:44.268Z,21.65
2022-08-14T06:33:11.775Z,21.72
2022-08-14T06:36:43.060Z,21.79
2022-08-14T06:40:25.754Z,21.90
2022-08-14T06:43:56.139Z,22.04
2022-08-14T06:47:24.419Z,22.16
2022-08-14T06:50:52.952Z,22.26
2022-08-14T06:54:20.527Z,22.35
2022-08-14T06:57:50.618Z,22.43
2022-08-14T07:01:35.184Z,22.54
2022-08-14T07:05:23.139Z,22.63
2022-08-14T07:08:52.772Z,22.71
2022-08-14T07:12:52.102Z,22.80
2022-08-14T07:16:13.257Z,22.90
2022-08-14T07:19:42.213Z,22.98
2022-08-14T07:23:19.948Z,23.08
2022-08-14T07:26:49.363Z,23.19
2022-08-14T07:30:34.454Z,23.29
2022-08-14T07:34:04.175Z,23.40
2022-08-14T07:37:31.616Z,23.50
2022-08-14T07:40:59.988Z,23.61
2022-08-14T07:44:32.826Z,23.73
2022-08-14T07:48:16.467Z,23.83
2022-08-14T07:51:44.400Z,23.86
2022-08-14T07:55:14.045Z,23.93
2022-08-14T07:58:51.315Z,24.06
2022-08-14T08:02:21.834Z,24.18
2022-08-14T08:05:52.714Z,24.30
2022-08-14T08:09:23.651Z,24.41
2022-08-14T08:12:51.646Z,24.54
2022-08-14T08:16:22.059Z,24.65
2022-08-14T08:19:51.575Z,24.76
2022-08-14T08:23:20.576Z,24.88
2022-08-14T08:26:50.269Z,25.01
2022-08-14T08:30:18.821Z,25.15
2022-08-14T08:33:52.788Z,25.29
2022-08-14T08:37:21.488Z,25.43
2022-08-14T08:40:56.963Z,25.56
2022-08-14T08:44:34.483Z,25.68
2022-08-14T08:48:03.848Z,25.78
2022-08-14T08:51:48.670Z,25.88
2022-08-14T08:55:18.531Z,25.98
2022-08-14T08:58:51.754Z,26.09
2022-08-14T09:02:20.169Z,26.20
2022-08-14T09:05:56.653Z,26.32
2022-08-14T09:09:33.092Z,26.43
2022-08-14T09:13:02.849Z,26.57
2022-08-14T09:16:35.730Z,26.71
2022-08-14T09:20:04.082Z,26.85
2022-08-14T09:23:35.182Z,26.91
2022-08-14T09:27:22.671Z,26.89
2022-08-14T09:30:55.246Z,26.92
2022-08-14T09:34:58.058Z,27.11
2022-08-14T09:38:35.096Z,27.31
2022-08-14T09:42:34.333Z,27.55
2022-08-14T09:46:08.842Z,27.78
2022-08-14T09:49:40.111Z,27.90
2022-08-14T09:53:17.737Z,27.99
2022-08-14T09:56:56.694Z,28.11
2022-08-14T10:00:43.671Z,28.17
2022-08-14T10:04:34.418Z,28.27
2022-08-14T10:08:04.934Z,28.25
2022-08-14T10:11:45.876Z,28.23
2022-08-14T10:15:21.408Z,28.35
2022-08-14T10:19:02.692Z,28.47
2022-08-14T10:23:21.758Z,28.57
2022-08-14T10:26:22.357Z,28.67
2022-08-14T10:29:54.745Z,28.78
2022-08-14T10:33:31.331Z,28.90
2022-08-14T10:37:14.140Z,28.95
2022-08-14T10:40:52.089Z,29.03
2022-08-14T10:44:34.126Z,29.23
2022-08-14T10:48:24.544Z,29.28
2022-08-14T10:52:10.350Z,29.37
2022-08-14T10:55:44.929Z,29.56
2022-08-14T10:59:13.732Z,29.76
2022-08-14T11:02:54.360Z,29.97
2022-08-14T11:06:24.686Z,30.08
2022-08-14T11:09:59.814Z,30.12
2022-08-14T11:13:30.758Z,30.16
2022-08-14T11:16:58.541Z,30.13
2022-08-14T11:20:27.864Z,30.20
2022-08-14T11:23:58.243Z,30.25
2022-08-14T11:27:33.509Z,30.36
2022-08-14T11:31:05.385Z,30.27
2022-08-14T11:34:34.927Z,30.16
2022-08-14T11:38:13.141Z,30.15
2022-08-14T11:41:55.870Z,30.32
2022-08-14T11:45:25.243Z,30.47
2022-08-14T11:49:04.047Z,30.60
2022-08-14T11:52:40.293Z,30.60
2022-08-14T11:56:29.588Z,30.79
2022-08-14T12:00:08.756Z,30.98
2022-08-14T12:03:57.315Z,31.25
2022-08-14T12:07:27.491Z,31.53
2022-08-14T12:11:10.196Z,31.83
2022-08-14T12:15:06.830Z,32.06
2022-08-14T12:18:37.264Z,32.45
2022-08-14T12:22:07.636Z,32.72
2022-08-14T12:25:36.935Z,32.89
2022-08-14T12:29:13.179Z,33.03
2022-08-14T12:32:47.758Z,33.01
2022-08-14T12:36:25.372Z,33.07
2022-08-14T12:39:54.044Z,33.11
2022-08-14T12:43:27.213Z,33.19
2022-08-14T12:47:07.718Z,33.37
2022-08-14T12:50:49.678Z,33.45
2022-08-14T12:54:27.184Z,33.55
2022-08-14T12:58:35.469Z,33.64
2022-08-14T13:02:05.571Z,33.75
2022-08-14T13:05:39.725Z,33.74
2022-08-14T13:09:14.364Z,33.88
2022-08-14T13:13:12.109Z,33.91
2022-08-14T13:16:38.621Z,34.15
2022-08-14T13:20:10.489Z,34.44
2022-08-14T13:23:43.124Z,34.71
2022-08-14T13:27:15.348Z,34.92
2022-08-14T13:30:50.947Z,35.15
2022-08-14T13:34:24.632Z,35.13
2022-08-14T13:37:54.260Z,35.11
2022-08-14T13:41:31.895Z,35.20
2022-08-14T13:45:09.258Z,35.20
2022-08-14T13:48:37.004Z,34.87
2022-08-14T13:52:14.605Z,34.33
2022-08-14T13:55:57.486Z,33.74
2022-08-14T13:59:37.801Z,33.38
2022-08-14T14:03:08.076Z,33.05
2022-08-14T14:06:37.248Z,32.60
2022-08-14T14:10:10.238Z,32.17
2022-08-14T14:13:37.490Z,31.73
2022-08-14T14:17:14.294Z,31.31
2022-08-14T14:20:44.907Z,31.05
2022-08-14T14:24:20.516Z,30.77
2022-08-14T14:27:53.473Z,30.52
2022-08-14T14:31:29.480Z,30.34
2022-08-14T14:35:01.742Z,30.17
2022-08-14T14:38:32.750Z,30.04
2022-08-14T14:42:06.137Z,29.89
2022-08-14T14:45:35.475Z,29.76
2022-08-14T14:49:11.555Z,29.62
2022-08-14T14:52:42.714Z,29.57
2022-08-14T14:56:50.878Z,29.58
2022-08-14T14:59:57.892Z,29.67
2022-08-14T15:03:25.699Z,29.86
2022-08-14T15:06:55.686Z,30.16
2022-08-14T15:10:27.963Z,30.47
2022-08-14T15:14:00.116Z,30.61
2022-08-14T15:17:35.314Z,30.64
2022-08-14T15:21:10.912Z,30.71
2022-08-14T15:24:53.122Z,30.82
2022-08-14T15:28:23.929Z,30.84
2022-08-14T15:31:55.168Z,30.82
2022-08-14T15:35:33.865Z,30.84
2022-08-14T15:39:06.794Z,30.85
2022-08-14T15:42:43.863Z,30.86
2022-08-14T15:46:41.485Z,30.84
2022-08-14T15:50:05.285Z,30.83
2022-08-14T15:53:38.393Z,30.81
2022-08-14T15:57:11.541Z,30.83
2022-08-14T16:00:57.633Z,30.89
2022-08-14T16:04:27.678Z,30.94
2022-08-14T16:07:56.231Z,30.98
2022-08-14T16:11:26.595Z,30.95
2022-08-14T16:14:59.033Z,30.81
2022-08-14T16:18:28.725Z,30.60
2022-08-14T16:22:57.690Z,30.33
2022-08-14T16:25:52.676Z,29.87
2022-08-14T16:29:21.094Z,29.29
2022-08-14T16:32:55.411Z,28.59
2022-08-14T16:36:31.276Z,27.95
2022-08-14T16:40:00.520Z,27.29
2022-08-14T16:43:28.447Z,26.85
2022-08-14T16:46:58.588Z,26.46
2022-08-14T16:50:40.734Z,26.13
2022-08-14T16:54:33.833Z,25.83
2022-08-14T16:58:10.730Z,25.53
2022-08-14T17:01:43.561Z,25.32
2022-08-14T17:05:27.154Z,25.19
2022-08-14T17:09:06.883Z,25.10
2022-08-14T17:12:38.484Z,25.00
2022-08-14T17:16:24.540Z,24.87
2022-08-14T17:20:33.892Z,24.71
2022-08-14T17:23:57.622Z,24.57
2022-08-14T17:27:29.266Z,24.50
2022-08-14T17:31:02.397Z,24.44
2022-08-14T17:34:48.588Z,24.38
2022-08-14T17:38:39.505Z,24.36
2022-08-14T17:42:13.606Z,24.35
2022-08-14T17:45:48.439Z,24.35
2022-08-14T17:49:24.222Z,24.34
2022-08-14T17:52:55.911Z,24.28
2022-08-14T17:56:29.182Z,24.19
2022-08-14T18:00:02.457Z,24.19
2022-08-14T18:03:44.917Z,24.20
2022-08-14T18:07:59.571Z,24.17
2022-08-14T18:11:21.154Z,24.13
2022-08-14T18:15:01.263Z,24.11
2022-08-14T18:18:39.573Z,24.09
2022-08-14T18:22:39.423Z,24.06
2022-08-14T18:26:36.289Z,24.01
2022-08-14T18:30:31.881Z,23.95
2022-08-14T18:34:12.228Z,23.85
2022-08-14T18:38:25.973Z,23.73
2022-08-14T18:42:49.341Z,23.64
2022-08-14T18:46:59.746Z,23.59
2022-08-14T18:50:25.995Z,23.56
2022-08-14T18:53:59.355Z,23.55
2022-08-14T18:57:40.486Z,23.57
2022-08-14T19:01:25.378Z,23.59
2022-08-14T19:05:15.346Z,23.61
2022-08-14T19:08:57.202Z,23.62
2022-08-14T19:13:11.763Z,23.61
2022-08-14T19:16:54.255Z,23.59
2022-08-14T19:20:35.263Z,23.56
2022-08-14T19:24:27.213Z,23.53
2022-08-14T19:28:30.961Z,23.48
2022-08-14T19:32:51.661Z,23.44
2022-08-14T19:36:31.743Z,23.37
2022-08-14T19:40:20.166Z,23.30
2022-08-14T19:43:57.481Z,23.22
2022-08-14T19:47:41.559Z,23.16
2022-08-14T19:51:17.903Z,23.08
2022-08-14T19:54:47.294Z,23.01
2022-08-14T19:58:19.077Z,22.97
2022-08-14T20:02:05.912Z,22.91
2022-08-14T20:05:45.463Z,22.87
2022-08-14T20:11:06.793Z,22.84
2022-08-14T20:13:11.522Z,22.79
2022-08-14T20:16:46.481Z,22.75
2022-08-14T20:20:31.869Z,22.71
2022-08-14T20:24:41.395Z,22.69
2022-08-14T20:28:30.325Z,22.67
2022-08-14T20:32:07.908Z,22.66
2022-08-14T20:35:52.320Z,22.61
2022-08-14T20:39:34.333Z,22.59
2022-08-14T20:43:25.172Z,22.53
2022-08-14T20:47:01.712Z,22.43
2022-08-14T20:50:32.344Z,22.33
2022-08-14T20:54:03.198Z,22.25
2022-08-14T20:57:44.296Z,22.15
2022-08-14T21:01:39.193Z,22.06
2022-08-14T21:05:17.186Z,21.99
2022-08-14T21:08:55.214Z,21.92
2022-08-14T21:12:34.718Z,21.91
2022-08-14T21:16:05.502Z,21.90
2022-08-14T21:19:53.785Z,21.90
2022-08-14T21:23:23.715Z,21.89
2022-08-14T21:27:12.084Z,21.89
2022-08-14T21:30:55.461Z,21.89
2022-08-14T21:34:31.760Z,21.88
2022-08-14T21:38:00.061Z,21.87
2022-08-14T21:41:42.463Z,21.85
2022-08-14T21:45:16.925Z,21.83
2022-08-14T21:48:44.419Z,21.82
2022-08-14T21:52:50.758Z,21.81
2022-08-14T21:56:06.520Z,21.80
2022-08-14T21:59:41.026Z,21.77
2022-08-14T22:03:17.620Z,21.71
2022-08-14T22:06:44.987Z,21.66
2022-08-14T22:10:24.451Z,21.63
2022-08-14T22:13:51.991Z,21.61
2022-08-14T22:17:23.782Z,21.56
2022-08-14T22:20:53.676Z,21.47
2022-08-14T22:24:37.665Z,21.41
2022-08-14T22:28:09.936Z,21.36
2022-08-14T22:31:40.191Z,21.31
2022-08-14T22:35:15.687Z,21.28
2022-08-14T22:38:49.701Z,21.26
2022-08-14T22:42:19.224Z,21.25
2022-08-14T22:45:55.632Z,21.24
2022-08-14T22:50:31.672Z,21.25
2022-08-14T22:53:17.928Z,21.23
2022-08-14T22:56:49.983Z,21.22
2022-08-14T23:00:25.395Z,21.21
2022-08-14T23:03:57.142Z,21.23
2022-08-14T23:08:58.573Z,21.25
2022-08-14T23:11:15.650Z,21.27
2022-08-14T23:14:44.434Z,21.27
2022-08-14T23:18:13.251Z,21.29
2022-08-14T23:21:46.258Z,21.29
2022-08-14T23:25:57.014Z,21.29
2022-08-14T23:29:11.743Z,21.29
2022-08-14T23:32:41.269Z,21.30
2022-08-14T23:36:32.783Z,21.29
2022-08-14T23:40:26.351Z,21.29
2022-08-14T23:43:57.778Z,21.31
2022-08-14T23:47:31.727Z,21.31
2022-08-14T23:51:21.861Z,21.32
2022-08-14T23:54:50.924Z,21.33
2022-08-14T23:58:21.353Z,21.34
